Airfield :







YOU CAN JOIN US ON...

 
LOGIN :

Register | Disclaimer

   EN    FR    IT 

 









Legend :    VFR   Marginal VFR   IFR   Intensive IFR   Very Intensive IFR
Visi :
Ceiling :
>= 8 km
>= 3000ft
5 to 8 km
1000 to 3000 ft
1500m to 5 km
500 to 1000 ft
800 to 1500m
200 to 500 ft
< 800m
< 200 ft
Symbols :   Thunderstorms  Fog  Heavy snow  Heavy precipitations  Wind > 20 kt







- Airport Elevation : 110 ft
- IATA code : YFB


CYFB - Iqaluit

CURRENT METAR :
  • 210700Z 16004KT 1 1/2SM -DZ BR BKN003 OVC005 04/04 A2965 RMK ST7ST1 SLP043

EXPIRED METARs :
  • 210600Z 16005KT 1 1/2SM -DZ BR OVC003 03/03 A2964 RMK DZ2ST6 VIS VRB 1-2 SLP041
  • 210532Z 12008KT 1 1/2SM -DZ BR OVC003 04/04 A2964 RMK DZ2ST6 VUS VRB 1-2 SLP040
  • 210511Z 15013G21KT 2SM -DZ BR BKN004 OVC006 04/04 A2963 RMK DZ2ST5ST1 SLP039
  • 210416Z 14008KT 3SM -DZ BR OVC004 04/04 A2964 RMK DZ2ST6 SLP041
  • 210400Z 14012KT 2SM -DZ BR SCT008 04/04 A2964 RMK ST3 SLP041

TAF TAF CYFB
Valid from the 21 at 06:00 until the 22 at 06:00 UTC


210538Z 2106/2206 15012KT 1SM -DZ BR OVC003
TEMPO 2106/2115 6SM BR SCT005 BKN025
FM211500 15012KT P6SM SCT006 BKN025
TEMPO 2115/2203 3SM -RA BR OVC006
FM220300 14007KT 1SM -DZ BR OVC003
TEMPO 2203/2206 6SM BR SCT005 BKN025 RMK NXT FCST BY 211200Z
CZUL FIR / North America



MET'MAP, your aeronautical weather chart ! - Copyright ORBIFLY December 2007 - Disclaimer

ORBIFLY MET'MAP TEAM :

Programming & Development : Alexandra Zaïnal
Concept & Development : Baudouin d'Aumeries
Co-Development & Prog : Marc-Olivier Méhu
Technical & hardware support : Manuel Goepfert

Contact : metmap@orbifly.com




SOURCES & CREDITS :

   NOAA